Time;durP1;ratioP1;P1;durP2;ratioP2;P2;SDS_P1;SDS_P2;PMS_P1;PMS_P2;Temp;Humidity;BMP_temperature;BMP_pressure;BME280_temperature;BME280_humidity;BME280_pressure;Samples;Min_cycle;Max_cycle;Signal;HPM_P1;HPM_P2
2023/04/19 00:02:17;;;;;;;483.17;452.77;;;10.10;26.80;;;;;;5016822;28;20241;-67
2023/04/19 00:04:43;;;;;;;198.37;183.27;;;10.00;26.80;;;;;;5034784;28;20171;-68
2023/04/19 00:07:10;;;;;;;289.27;270.17;;;10.00;27.60;;;;;;5034285;28;20461;-68
2023/04/19 00:09:35;;;;;;;267.90;250.33;;;10.00;26.80;;;;;;5032924;28;20926;-67
2023/04/19 00:12:02;;;;;;;444.30;415.83;;;10.00;26.80;;;;;;5034079;28;20414;-68
2023/04/19 00:14:27;;;;;;;348.80;326.50;;;10.00;26.70;;;;;;5034536;28;20307;-68
2023/04/19 00:16:53;;;;;;;240.00;222.27;;;9.90;28.30;;;;;;5033849;28;20506;-68
2023/04/19 00:19:20;;;;;;;182.33;168.23;;;9.90;28.50;;;;;;5034227;28;20188;-68
2023/04/19 00:21:46;;;;;;;321.80;300.50;;;9.90;28.80;;;;;;5034012;28;20695;-68
2023/04/19 00:24:11;;;;;;;319.00;297.40;;;9.80;28.40;;;;;;5034255;28;20421;-68
2023/04/19 00:26:37;;;;;;;377.13;352.37;;;9.90;28.90;;;;;;5033886;28;20282;-68
2023/04/19 00:29:02;;;;;;;238.60;222.50;;;9.80;28.80;;;;;;5034218;28;20174;-69
2023/04/19 00:31:28;;;;;;;420.23;393.60;;;9.90;28.70;;;;;;5033670;28;20629;-69
2023/04/19 00:33:53;;;;;;;319.97;301.10;;;9.80;29.10;;;;;;5033599;28;20236;-69
2023/04/19 00:36:19;;;;;;;129.57;117.50;;;9.80;29.50;;;;;;5033492;28;20699;-69
2023/04/19 00:38:45;;;;;;;347.33;324.90;;;9.90;29.40;;;;;;5016051;28;20656;-69
2023/04/19 00:41:10;;;;;;;347.43;324.57;;;9.80;28.80;;;;;;5016066;28;20595;-69
2023/04/19 00:43:36;;;;;;;91.77;81.70;;;9.80;29.30;;;;;;5033543;28;20194;-69
2023/04/19 00:46:01;;;;;;;400.00;375.93;;;9.80;29.30;;;;;;5016195;28;20210;-68
2023/04/19 00:48:28;;;;;;;140.53;127.57;;;9.90;28.90;;;;;;5033733;28;20536;-68
2023/04/19 00:50:54;;;;;;;372.40;347.73;;;9.80;29.50;;;;;;5033719;28;20175;-68
2023/04/19 00:53:19;;;;;;;274.53;255.10;;;9.80;29.70;;;;;;5015456;28;21001;-69
2023/04/19 00:55:45;;;;;;;330.50;309.23;;;9.80;29.70;;;;;;5033625;28;20521;-69
2023/04/19 00:58:10;;;;;;;340.87;318.00;;;9.60;30.20;;;;;;5015754;28;20229;-68
2023/04/19 01:00:36;;;;;;;269.10;251.80;;;9.60;30.20;;;;;;5016129;28;20270;-69
2023/04/19 01:03:02;;;;;;;340.70;319.30;;;9.70;30.00;;;;;;5033544;28;20183;-68
2023/04/19 01:05:29;;;;;;;170.33;156.10;;;9.60;30.60;;;;;;5015958;28;20462;-69
2023/04/19 01:07:54;;;;;;;163.13;149.70;;;9.60;30.00;;;;;;5033433;28;20409;-68
2023/04/19 01:10:20;;;;;;;416.13;389.93;;;9.60;30.80;;;;;;5033047;28;20846;-68
2023/04/19 01:12:45;;;;;;;430.80;404.60;;;9.60;30.10;;;;;;5033262;28;20429;-68
2023/04/19 01:15:11;;;;;;;260.13;243.20;;;9.60;30.10;;;;;;5033262;28;20218;-69
2023/04/19 01:17:37;;;;;;;257.00;238.90;;;9.60;30.30;;;;;;5033245;28;20267;-68
2023/04/19 01:20:07;;;;;;;223.33;207.10;;;9.60;30.80;;;;;;5033385;28;20175;-69
2023/04/19 01:22:36;;;;;;;327.43;305.23;;;9.60;29.80;;;;;;5015265;28;20475;-69
2023/04/19 01:25:03;;;;;;;224.43;207.93;;;9.60;30.00;;;;;;5014883;28;20425;-69
2023/04/19 01:27:29;;;;;;;314.97;293.90;;;9.60;30.70;;;;;;5033480;28;20434;-68
2023/04/19 01:29:55;;;;;;;163.87;149.40;;;9.50;31.30;;;;;;5033075;28;20472;-69
2023/04/19 01:32:20;;;;;;;356.03;331.80;;;9.60;30.00;;;;;;5015204;28;20179;-69
2023/04/19 01:34:46;;;;;;;255.73;238.27;;;9.60;29.90;;;;;;5032842;28;20207;-69
2023/04/19 01:37:12;;;;;;;411.37;385.23;;;9.60;30.50;;;;;;5032867;28;20211;-69
2023/04/19 01:39:37;;;;;;;409.73;384.03;;;9.50;30.00;;;;;;5032795;28;20915;-69
2023/04/19 01:42:03;;;;;;;396.40;371.13;;;9.50;30.10;;;;;;5032642;28;20711;-69
2023/04/19 01:44:29;;;;;;;221.40;206.03;;;9.50;30.40;;;;;;5032661;28;20266;-68
2023/04/19 01:46:55;;;;;;;353.60;330.53;;;9.40;30.90;;;;;;5032734;28;20265;-68
2023/04/19 01:49:21;;;;;;;252.17;235.13;;;9.50;30.50;;;;;;5032439;28;20434;-68
2023/04/19 01:51:46;;;;;;;270.53;250.63;;;9.50;30.60;;;;;;5032172;28;20296;-69
2023/04/19 01:54:12;;;;;;;228.50;212.37;;;9.50;30.10;;;;;;5032546;28;20187;-68
2023/04/19 01:56:37;;;;;;;337.10;316.87;;;9.50;30.00;;;;;;5032556;28;20229;-69
2023/04/19 01:59:03;;;;;;;289.83;268.93;;;9.50;30.10;;;;;;5032866;28;20215;-69
2023/04/19 02:01:28;;;;;;;223.27;206.97;;;9.60;30.20;;;;;;5032404;28;20260;-69
2023/04/19 02:03:54;;;;;;;226.83;210.27;;;9.50;30.00;;;;;;5014239;28;20242;-68
2023/04/19 02:06:20;;;;;;;393.47;368.67;;;9.50;30.30;;;;;;5032211;28;20766;-67
2023/04/19 02:08:45;;;;;;;342.70;319.97;;;9.40;30.40;;;;;;5032287;28;20414;-68
2023/04/19 02:11:15;;;;;;;313.43;292.17;;;9.40;30.80;;;;;;5032516;28;20171;-69
2023/04/19 02:13:41;;;;;;;324.10;302.73;;;9.30;31.30;;;;;;5014385;28;20526;-68
2023/04/19 02:16:08;;;;;;;336.00;314.83;;;9.30;31.30;;;;;;5014510;28;20467;-68
2023/04/19 02:18:40;;;;;;;246.83;229.30;;;9.30;31.30;;;;;;5014581;28;20442;-69
2023/04/19 02:21:07;;;;;;;446.20;418.17;;;9.20;31.50;;;;;;5031585;28;20492;-68
2023/04/19 02:23:34;;;;;;;335.93;313.03;;;9.20;31.70;;;;;;5031679;28;20945;-68
2023/04/19 02:26:02;;;;;;;215.47;199.20;;;9.20;31.70;;;;;;5032039;28;21036;-69
2023/04/19 02:28:30;;;;;;;357.70;335.07;;;9.10;31.80;;;;;;5032309;28;20448;-69
2023/04/19 02:30:57;;;;;;;387.97;364.27;;;9.00;32.40;;;;;;5032582;28;20493;-68
2023/04/19 02:33:24;;;;;;;173.30;159.30;;;9.00;32.50;;;;;;5031750;28;20426;-68
2023/04/19 02:35:49;;;;;;;374.40;349.30;;;8.90;33.60;;;;;;5032032;28;20931;-68
2023/04/19 02:38:15;;;;;;;426.83;398.50;;;8.90;33.90;;;;;;5032198;28;20416;-68
2023/04/19 02:40:40;;;;;;;340.83;318.33;;;8.80;33.80;;;;;;5032145;28;20229;-68
2023/04/19 02:43:06;;;;;;;233.80;217.00;;;8.80;34.20;;;;;;5031660;28;20551;-68
2023/04/19 02:45:31;;;;;;;272.63;253.87;;;8.70;35.00;;;;;;5031745;28;20690;-69
2023/04/19 02:47:58;;;;;;;415.33;388.83;;;8.80;34.90;;;;;;5031911;28;20427;-69
2023/04/19 02:50:27;;;;;;;293.17;271.77;;;8.80;35.10;;;;;;5032044;28;20763;-69
2023/04/19 02:52:53;;;;;;;295.27;275.00;;;8.80;34.90;;;;;;5031576;28;20487;-69
2023/04/19 02:55:18;;;;;;;229.43;213.03;;;8.80;34.40;;;;;;5014347;28;20513;-69
2023/04/19 02:57:44;;;;;;;347.63;326.00;;;8.80;34.50;;;;;;5031856;28;20666;-69
2023/04/19 03:00:10;;;;;;;269.93;251.10;;;8.80;34.40;;;;;;5031925;28;20186;-69
2023/04/19 03:02:36;;;;;;;223.30;207.43;;;8.80;34.90;;;;;;5013740;28;20189;-69
2023/04/19 03:05:03;;;;;;;288.13;268.63;;;8.80;35.40;;;;;;5031648;28;20455;-69
2023/04/19 03:07:28;;;;;;;439.23;409.87;;;8.80;35.40;;;;;;5031686;28;20441;-69
2023/04/19 03:09:54;;;;;;;368.37;345.43;;;8.80;35.10;;;;;;5031802;28;20505;-69
2023/04/19 03:12:20;;;;;;;373.37;347.83;;;8.80;36.10;;;;;;5031314;28;20679;-69
2023/04/19 03:14:45;;;;;;;274.23;256.10;;;8.80;35.90;;;;;;5031828;28;20616;-70
2023/04/19 03:17:11;;;;;;;255.17;237.20;;;8.90;34.80;;;;;;5031590;28;20198;-70
2023/04/19 03:19:36;;;;;;;253.70;235.60;;;9.00;34.10;;;;;;5031565;28;20179;-69
2023/04/19 03:22:02;;;;;;;434.50;405.57;;;9.00;33.30;;;;;;5013527;28;20256;-69
2023/04/19 03:24:28;;;;;;;299.57;279.73;;;9.00;33.50;;;;;;5031576;28;20689;-70
2023/04/19 03:26:57;;;;;;;315.43;292.20;;;9.00;33.80;;;;;;5013683;28;20206;-69
2023/04/19 03:29:23;;;;;;;319.53;296.90;;;9.10;33.80;;;;;;5031696;28;20492;-69
2023/04/19 03:31:49;;;;;;;244.67;227.40;;;9.00;33.30;;;;;;5032204;28;20532;-70
2023/04/19 03:34:14;;;;;;;305.90;286.37;;;9.00;33.90;;;;;;5035342;28;20174;-67
2023/04/19 03:36:40;;;;;;;230.50;212.80;;;9.00;34.00;;;;;;5035181;28;20461;-68
2023/04/19 03:39:06;;;;;;;225.70;209.53;;;9.10;33.20;;;;;;5035234;28;20208;-68
2023/04/19 03:41:31;;;;;;;387.93;361.63;;;9.10;33.00;;;;;;5017084;28;20193;-68
2023/04/19 03:43:57;;;;;;;188.93;174.50;;;9.10;33.00;;;;;;5035020;28;20254;-68
2023/04/19 03:46:24;;;;;;;350.43;329.33;;;9.10;33.40;;;;;;5017119;28;20815;-68
2023/04/19 03:48:51;;;;;;;310.03;290.87;;;9.10;32.90;;;;;;5034934;28;20476;-69
2023/04/19 03:51:17;;;;;;;308.80;288.40;;;9.10;33.50;;;;;;5016898;28;20505;-68
2023/04/19 03:53:42;;;;;;;239.63;222.53;;;9.00;33.30;;;;;;5017039;28;20522;-68
2023/04/19 03:56:08;;;;;;;382.80;358.13;;;9.00;34.20;;;;;;5034759;28;20441;-69
2023/04/19 03:58:34;;;;;;;340.13;320.63;;;8.90;34.40;;;;;;5034724;28;20186;-69
2023/04/19 04:01:00;;;;;;;206.97;192.13;;;8.90;34.90;;;;;;5034659;28;20274;-68
2023/04/19 04:03:26;;;;;;;376.60;350.53;;;8.90;35.10;;;;;;5034139;28;20187;-68
2023/04/19 04:05:51;;;;;;;260.87;241.50;;;8.90;35.60;;;;;;5033091;28;20465;-68
2023/04/19 04:08:17;;;;;;;338.33;316.37;;;8.90;35.40;;;;;;5017091;28;20424;-69
2023/04/19 04:10:42;;;;;;;242.53;224.97;;;8.90;35.20;;;;;;5034541;28;20183;-68
2023/04/19 04:13:08;;;;;;;393.77;367.70;;;8.90;35.80;;;;;;5033893;28;20180;-68
2023/04/19 04:15:34;;;;;;;221.40;204.70;;;8.90;36.10;;;;;;5033794;28;20186;-69
2023/04/19 04:17:59;;;;;;;325.93;304.17;;;8.80;36.20;;;;;;5016820;28;20592;-69
2023/04/19 04:20:25;;;;;;;383.60;358.27;;;8.80;36.20;;;;;;5034446;28;20194;-69
2023/04/19 04:22:51;;;;;;;251.00;234.20;;;8.80;36.90;;;;;;5016202;28;20573;-69
2023/04/19 04:25:17;;;;;;;280.03;262.07;;;8.80;37.10;;;;;;5034456;28;20553;-69
2023/04/19 04:27:43;;;;;;;280.17;262.23;;;8.80;36.70;;;;;;5034824;28;20444;-69
2023/04/19 04:30:10;;;;;;;245.67;226.30;;;8.80;37.00;;;;;;5016847;28;20182;-69
2023/04/19 04:32:39;;;;;;;382.13;356.17;;;8.80;37.20;;;;;;5033648;28;20457;-69
2023/04/19 04:35:06;;;;;;;243.93;226.63;;;8.80;37.10;;;;;;5034478;28;20492;-69
2023/04/19 04:37:35;;;;;;;231.70;212.60;;;8.70;36.90;;;;;;5040191;28;20450;-69
2023/04/19 04:40:05;;;;;;;353.80;330.57;;;8.70;38.10;;;;;;5042636;28;20440;-69
2023/04/19 04:42:31;;;;;;;268.83;248.83;;;8.80;37.10;;;;;;5043271;28;20429;-69
2023/04/19 04:44:57;;;;;;;245.57;227.40;;;8.70;37.30;;;;;;5044143;28;20420;-69
2023/04/19 04:47:23;;;;;;;423.87;393.90;;;8.70;37.20;;;;;;5045340;28;20561;-68
2023/04/19 04:49:49;;;;;;;329.90;306.70;;;8.70;37.60;;;;;;5027814;28;20416;-69
2023/04/19 04:52:16;;;;;;;273.53;253.43;;;8.70;38.00;;;;;;5043838;28;20882;-69
2023/04/19 04:54:41;;;;;;;428.17;398.50;;;8.70;37.80;;;;;;5044730;28;20454;-69
2023/04/19 04:57:07;;;;;;;421.80;394.93;;;8.70;38.40;;;;;;5045230;28;20440;-69
2023/04/19 04:59:33;;;;;;;144.77;131.37;;;8.70;37.50;;;;;;5044757;28;20208;-70
2023/04/19 05:01:58;;;;;;;368.77;344.43;;;8.80;38.30;;;;;;5043173;28;20440;-68
2023/04/19 05:04:24;;;;;;;292.43;271.83;;;8.80;36.80;;;;;;5025707;28;20182;-68
2023/04/19 05:06:49;;;;;;;387.17;360.30;;;8.80;37.00;;;;;;5046012;28;20680;-69
2023/04/19 05:09:15;;;;;;;275.50;256.00;;;8.70;37.00;;;;;;5045825;28;20695;-69
2023/04/19 05:11:41;;;;;;;358.07;333.93;;;8.80;37.40;;;;;;5046539;28;20229;-68
2023/04/19 05:14:06;;;;;;;325.40;302.03;;;8.80;36.50;;;;;;5030296;28;20210;-69
2023/04/19 05:16:32;;;;;;;255.53;238.20;;;8.90;36.20;;;;;;5046041;28;20234;-70
2023/04/19 05:18:57;;;;;;;335.07;310.83;;;8.90;35.80;;;;;;5044396;28;20187;-70
2023/04/19 05:21:24;;;;;;;204.97;188.67;;;;;;;;;;5045097;28;20179;-69
2023/04/19 05:23:52;;;;;;;373.47;348.47;;;9.00;36.20;;;;;;5046027;28;20212;-70
2023/04/19 05:26:18;;;;;;;255.97;237.43;;;9.30;33.80;;;;;;5043154;28;20468;-70
2023/04/19 05:28:44;;;;;;;397.90;372.30;;;9.30;34.10;;;;;;5026059;28;20429;-69
2023/04/19 05:31:10;;;;;;;341.83;318.13;;;;;;;;;;5044606;28;20516;-69
2023/04/19 05:33:36;;;;;;;487.83;455.83;;;9.50;31.90;;;;;;5021470;28;20426;-71
2023/04/19 05:36:02;;;;;;;391.97;365.60;;;10.10;29.20;;;;;;5037292;28;20934;-69
2023/04/19 05:38:27;;;;;;;251.70;232.70;;;10.60;25.70;;;;;;5018873;28;20532;-69
2023/04/19 05:40:53;;;;;;;391.57;365.80;;;10.70;24.30;;;;;;5042165;28;20190;-70
2023/04/19 05:43:18;;;;;;;406.20;378.37;;;10.70;24.10;;;;;;5040652;28;20280;-69
2023/04/19 05:45:44;;;;;;;487.67;456.73;;;10.30;24.80;;;;;;5022890;28;20230;-69
2023/04/19 05:48:09;;;;;;;233.03;216.37;;;10.00;26.00;;;;;;5040935;28;20265;-69
2023/04/19 05:50:35;;;;;;;233.40;216.60;;;10.00;26.80;;;;;;5024338;28;20631;-70
2023/04/19 05:53:02;;;;;;;331.00;307.50;;;10.00;27.20;;;;;;5023275;28;20187;-71
2023/04/19 05:55:28;;;;;;;328.77;307.10;;;10.00;26.80;;;;;;5041132;28;20658;-69
2023/04/19 05:57:53;;;;;;;310.43;289.70;;;10.00;26.70;;;;;;5040782;28;20440;-69
2023/04/19 06:00:19;;;;;;;280.83;260.33;;;9.90;27.40;;;;;;5044221;28;20201;-69
2023/04/19 06:02:45;;;;;;;247.17;230.20;;;9.80;28.10;;;;;;5042757;28;20179;-69
2023/04/19 06:05:10;;;;;;;476.03;445.53;;;9.80;28.50;;;;;;5044698;28;20424;-70
2023/04/19 06:07:36;;;;;;;282.73;263.27;;;9.80;27.80;;;;;;5043633;28;20186;-68
2023/04/19 06:10:02;;;;;;;424.77;395.43;;;9.90;28.30;;;;;;5041618;28;20241;-69
2023/04/19 06:12:28;;;;;;;523.33;489.57;;;10.10;26.80;;;;;;5040840;28;20270;-68
2023/04/19 06:14:53;;;;;;;277.03;257.83;;;10.30;25.70;;;;;;5041769;28;20178;-70
2023/04/19 06:17:23;;;;;;;415.77;387.00;;;10.20;25.60;;;;;;5040129;28;20204;-71
2023/04/19 06:19:50;;;;;;;386.70;361.00;;;10.10;25.40;;;;;;5039377;28;20196;-70
2023/04/19 06:22:16;;;;;;;604.53;565.73;;;10.00;25.80;;;;;;5040644;28;20418;-70
2023/04/19 06:24:45;;;;;;;454.17;423.30;;;10.10;25.50;;;;;;5043020;28;20417;-72
2023/04/19 06:27:11;;;;;;;355.63;332.60;;;10.10;25.70;;;;;;5043269;28;20465;-71
2023/04/19 06:29:37;;;;;;;487.30;455.57;;;10.10;25.80;;;;;;5042822;28;20433;-70
2023/04/19 06:32:02;;;;;;;453.13;422.77;;;10.10;25.80;;;;;;5042105;28;20428;-70
2023/04/19 06:34:28;;;;;;;330.23;309.10;;;10.10;25.80;;;;;;5026468;28;20175;-70
2023/04/19 06:36:54;;;;;;;341.13;315.63;;;10.10;25.30;;;;;;5038470;28;20661;-71
2023/04/19 06:39:19;;;;;;;440.33;411.03;;;10.20;25.80;;;;;;5028512;28;20194;-70
2023/04/19 06:41:45;;;;;;;406.23;382.47;;;10.10;24.80;;;;;;5022348;28;20214;-70
2023/04/19 06:44:12;;;;;;;442.83;415.00;;;10.20;25.40;;;;;;5021746;28;20185;-70
2023/04/19 06:46:38;;;;;;;400.63;374.77;;;10.30;24.70;;;;;;5022230;28;20199;-70
2023/04/19 06:49:03;;;;;;;486.57;453.20;;;10.30;24.60;;;;;;5030174;28;20931;-70
2023/04/19 06:51:29;;;;;;;404.03;376.43;;;10.10;24.90;;;;;;5023878;28;20434;-69
2023/04/19 06:53:55;;;;;;;387.37;362.00;;;10.00;25.30;;;;;;5040309;28;20175;-70
2023/04/19 06:56:44;;;;;;;540.67;504.20;;;10.10;25.00;;;;;;5027610;28;20208;-72
2023/04/19 06:59:11;;;;;;;362.87;338.30;;;10.00;24.90;;;;;;5022654;28;20180;-70
2023/04/19 07:01:37;;;;;;;348.43;325.10;;;10.00;25.40;;;;;;5004951;28;20418;-69
2023/04/19 07:04:03;;;;;;;319.47;298.67;;;9.90;26.50;;;;;;5041645;28;20467;-70
2023/04/19 07:06:29;;;;;;;315.47;293.70;;;9.90;26.40;;;;;;5042423;28;20484;-69
2023/04/19 07:08:54;;;;;;;374.60;350.83;;;9.90;27.00;;;;;;5042104;28;20193;-73
2023/04/19 07:11:20;;;;;;;260.30;242.07;;;10.00;26.00;;;;;;5039212;28;20565;-71
2023/04/19 07:13:45;;;;;;;424.53;398.10;;;10.10;25.80;;;;;;5036991;28;20175;-71
2023/04/19 07:16:12;;;;;;;501.63;469.20;;;10.30;24.70;;;;;;5036214;28;20211;-71
2023/04/19 07:18:38;;;;;;;388.03;361.97;;;10.20;24.40;;;;;;5019076;28;20191;-72
2023/04/19 07:21:03;;;;;;;385.53;362.67;;;10.10;24.80;;;;;;5011238;28;20431;-73
2023/04/19 07:23:29;;;;;;;325.20;303.23;;;10.00;25.20;;;;;;5017725;28;20200;-72
2023/04/19 07:25:55;;;;;;;355.43;332.87;;;10.10;25.10;;;;;;5036754;28;20304;-72
2023/04/19 07:28:23;;;;;;;324.30;303.27;;;10.10;25.00;;;;;;5037618;28;20896;-74
2023/04/19 07:30:49;;;;;;;252.30;233.00;;;10.30;24.90;;;;;;5019524;28;20193;-71
2023/04/19 07:33:15;;;;;;;286.07;266.63;;;10.30;24.30;;;;;;5036757;28;20410;-72
2023/04/19 07:35:41;;;;;;;413.00;388.60;;;10.30;24.10;;;;;;5036819;28;20179;-72
2023/04/19 07:38:07;;;;;;;278.40;259.70;;;10.40;24.60;;;;;;5019994;28;20422;-72
2023/04/19 07:40:32;;;;;;;296.50;275.00;;;10.60;23.00;;;;;;5037145;28;20176;-74
2023/04/19 07:42:58;;;;;;;284.20;264.83;;;10.70;22.70;;;;;;5023685;28;20179;-73
2023/04/19 07:45:23;;;;;;;286.53;267.17;;;10.60;23.00;;;;;;5019642;28;20732;-72
2023/04/19 07:47:49;;;;;;;329.60;306.47;;;10.60;22.90;;;;;;5043313;28;20291;-73
2023/04/19 07:50:15;;;;;;;342.23;319.63;;;10.60;23.00;;;;;;5045733;28;20756;-73
2023/04/19 07:52:40;;;;;;;292.30;271.43;;;10.70;22.40;;;;;;5032662;28;20186;-73
2023/04/19 07:55:09;;;;;;;392.87;367.77;;;10.80;22.50;;;;;;5030983;28;20219;-73
2023/04/19 07:57:35;;;;;;;339.03;317.33;;;10.80;22.20;;;;;;5030873;28;20199;-72
2023/04/19 08:00:01;;;;;;;140.97;128.03;;;10.90;22.40;;;;;;5024502;28;20438;-72
2023/04/19 08:02:27;;;;;;;316.97;294.60;;;11.10;20.40;;;;;;5029211;28;20293;-73
2023/04/19 08:04:53;;;;;;;356.67;333.20;;;11.30;19.80;;;;;;5042763;28;20792;-72
2023/04/19 08:07:18;;;;;;;267.03;247.47;;;11.40;19.30;;;;;;5041574;28;20473;-72
2023/04/19 08:09:44;;;;;;;98.00;76.60;;;11.50;19.40;;;;;;5030244;28;20422;-73
2023/04/19 08:12:09;;;;;;;366.80;339.93;;;11.70;18.60;;;;;;5030128;28;20569;-73
2023/04/19 08:14:37;;;;;;;304.37;281.43;;;11.70;17.50;;;;;;5012762;28;20668;-72
2023/04/19 08:17:03;;;;;;;347.53;320.67;;;11.70;17.20;;;;;;5030169;28;20545;-72
2023/04/19 08:19:29;;;;;;;454.80;423.20;;;11.60;18.30;;;;;;5028669;28;20422;-73
2023/04/19 08:21:55;;;;;;;366.20;342.97;;;11.80;17.30;;;;;;5023111;28;20184;-73
2023/04/19 08:24:21;;;;;;;453.53;424.10;;;11.90;16.60;;;;;;5028994;28;20280;-72
2023/04/19 08:26:52;;;;;;;248.63;231.43;;;12.20;15.60;;;;;;5030019;28;20550;-72
2023/04/19 08:29:21;;;;;;;375.50;351.27;;;12.30;15.20;;;;;;5030996;28;20296;-73
2023/04/19 08:31:46;;;;;;;372.53;349.53;;;12.40;14.70;;;;;;5029427;28;20426;-73
2023/04/19 08:34:12;;;;;;;308.87;288.67;;;12.30;14.20;;;;;;5012076;28;20457;-74
2023/04/19 08:36:37;;;;;;;416.13;388.70;;;12.50;14.60;;;;;;5030593;28;20229;-74
2023/04/19 08:39:03;;;;;;;255.37;237.97;;;12.70;13.40;;;;;;5011805;28;20630;-73
2023/04/19 08:41:32;;;;;;;123.13;111.57;;;13.00;13.10;;;;;;5029750;28;20194;-74
2023/04/19 08:44:00;;;;;;;314.83;293.93;;;13.10;12.80;;;;;;5030435;28;20190;-73
2023/04/19 08:46:25;;;;;;;305.03;284.80;;;13.20;11.90;;;;;;5029220;28;20505;-73
2023/04/19 08:48:51;;;;;;;448.00;420.03;;;13.20;11.90;;;;;;5011910;28;20955;-72
2023/04/19 08:51:18;;;;;;;488.53;456.80;;;;;;;;;;5030247;28;20190;-72
2023/04/19 08:53:44;;;;;;;331.30;309.77;;;13.00;11.50;;;;;;5029523;28;20433;-72
2023/04/19 08:56:11;;;;;;;369.60;347.50;;;13.10;11.30;;;;;;5029680;28;20457;-72
2023/04/19 08:58:36;;;;;;;360.80;337.53;;;13.20;12.30;;;;;;5030785;28;20455;-72
2023/04/19 09:01:07;;;;;;;360.67;337.30;;;13.50;10.50;;;;;;5030192;28;20426;-72
2023/04/19 09:03:32;;;;;;;288.40;270.13;;;13.40;10.60;;;;;;5012109;28;20281;-72
2023/04/19 09:06:00;;;;;;;248.00;230.83;;;13.80;10.50;;;;;;5017042;28;20512;-69
2023/04/19 09:08:27;;;;;;;407.90;382.50;;;13.90;9.30;;;;;;5037031;28;20214;-68
2023/04/19 09:10:58;;;;;;;384.60;361.27;;;13.90;8.00;;;;;;5038831;28;20420;-69
2023/04/19 09:13:25;;;;;;;289.37;270.43;;;14.10;8.00;;;;;;5036706;28;20426;-70
2023/04/19 09:15:52;;;;;;;467.87;437.87;;;14.10;8.10;;;;;;5019534;28;20877;-68
2023/04/19 09:18:18;;;;;;;406.43;380.10;;;14.00;7.60;;;;;;5025328;28;20428;-67
2023/04/19 09:20:44;;;;;;;346.13;324.50;;;13.80;8.10;;;;;;5043652;28;20429;-67
2023/04/19 09:23:12;;;;;;;447.23;419.83;;;13.90;9.10;;;;;;5042059;28;20437;-69
2023/04/19 09:25:39;;;;;;;350.70;327.67;;;14.20;8.10;;;;;;5025658;28;20483;-69
2023/04/19 09:28:12;;;;;;;311.43;291.50;;;14.20;7.80;;;;;;5042739;28;20499;-69
2023/04/19 09:30:38;;;;;;;412.83;386.47;;;14.50;7.70;;;;;;5043046;28;20597;-69
2023/04/19 09:33:04;;;;;;;561.70;524.50;;;14.90;6.10;;;;;;5042971;28;20434;-69
2023/04/19 09:35:41;;;;;;;428.20;400.77;;;14.90;5.10;;;;;;5026243;28;20485;-69
2023/04/19 09:38:07;;;;;;;409.20;383.13;;;15.10;5.50;;;;;;5026240;28;20489;-69
2023/04/19 09:40:33;;;;;;;398.30;372.70;;;15.40;4.40;;;;;;5044444;28;20413;-69
2023/04/19 09:42:59;;;;;;;425.40;398.53;;;15.70;4.60;;;;;;5043704;28;20410;-69
2023/04/19 09:45:26;;;;;;;521.57;486.73;;;16.00;4.30;;;;;;5042906;28;20448;-68
2023/04/19 09:48:04;;;;;;;402.90;377.40;;;15.40;3.80;;;;;;5042195;28;20507;-69
2023/04/19 09:50:30;;;;;;;290.57;271.30;;;15.10;4.10;;;;;;5040523;28;20410;-69
2023/04/19 09:52:57;;;;;;;351.47;328.63;;;15.20;5.00;;;;;;5042045;28;20433;-69
2023/04/19 09:55:24;;;;;;;397.97;372.80;;;15.20;5.00;;;;;;5042410;28;20202;-69
2023/04/19 09:57:51;;;;;;;536.50;500.53;;;15.30;4.50;;;;;;5040492;28;20430;-69
2023/04/19 10:00:17;;;;;;;461.03;430.93;;;15.00;4.60;;;;;;5040501;28;20872;-69
2023/04/19 10:02:46;;;;;;;425.47;397.37;;;14.90;5.30;;;;;;5038900;28;20505;-69
2023/04/19 10:05:14;;;;;;;400.60;374.80;;;14.70;5.40;;;;;;5039633;28;20266;-69
2023/04/19 10:07:40;;;;;;;474.33;444.80;;;14.70;6.00;;;;;;5039385;28;20471;-69
2023/04/19 10:10:07;;;;;;;458.63;428.57;;;14.50;6.20;;;;;;5040869;28;20414;-69
2023/04/19 10:12:34;;;;;;;445.43;417.47;;;14.50;5.80;;;;;;5039681;28;20406;-69
2023/04/19 10:14:59;;;;;;;239.07;222.20;;;14.60;6.30;;;;;;5025078;28;20431;-69
2023/04/19 10:17:25;;;;;;;414.03;387.63;;;14.70;6.50;;;;;;5040357;28;20524;-69
2023/04/19 10:20:00;;;;;;;368.70;345.40;;;15.20;5.20;;;;;;5019422;28;20183;-69
2023/04/19 10:22:26;;;;;;;376.33;352.37;;;15.50;4.50;;;;;;5038833;28;20464;-69
2023/04/19 10:25:12;;;;;;;503.10;471.47;;;16.00;3.90;;;;;;5021262;28;20445;-69
2023/04/19 10:27:47;;;;;;;383.33;359.47;;;16.00;3.20;;;;;;5038733;28;20465;-69
2023/04/19 10:30:19;;;;;;;472.83;443.43;;;15.80;3.30;;;;;;5038490;28;20453;-69
2023/04/19 10:32:55;;;;;;;522.20;488.00;;;16.10;3.70;;;;;;5037897;28;20421;-69
2023/04/19 10:35:36;;;;;;;486.97;457.20;;;16.10;2.90;;;;;;5039492;28;20918;-69
2023/04/19 10:38:07;;;;;;;403.70;377.20;;;16.30;3.00;;;;;;5033466;28;20421;-70
2023/04/19 10:40:51;;;;;;;397.93;372.77;;;16.40;2.90;;;;;;5032576;28;20825;-70
2023/04/19 10:43:18;;;;;;;411.23;385.70;;;16.00;3.10;;;;;;5032011;28;20434;-70
2023/04/19 10:45:45;;;;;;;392.83;367.43;;;15.80;3.40;;;;;;5014498;28;20426;-70
2023/04/19 10:48:36;;;;;;;365.87;343.40;;;15.70;3.50;;;;;;5014518;28;20501;-70
2023/04/19 10:51:14;;;;;;;433.80;405.30;;;16.10;3.10;;;;;;5032150;28;20399;-70
2023/04/19 10:53:47;;;;;;;349.10;326.80;;;16.20;3.20;;;;;;5032141;28;20409;-70
2023/04/19 10:56:14;;;;;;;474.23;444.37;;;16.30;2.60;;;;;;5032130;28;20457;-70
2023/04/19 10:59:01;;;;;;;457.53;427.93;;;15.90;2.80;;;;;;5031835;28;20430;-70
2023/04/19 11:01:41;;;;;;;229.47;212.07;;;15.70;2.80;;;;;;5014278;28;20420;-70
2023/04/19 11:04:16;;;;;;;431.23;403.23;;;15.50;3.80;;;;;;5031893;28;20505;-70
2023/04/19 11:06:51;;;;;;;377.00;353.40;;;15.40;3.20;;;;;;5031699;28;20517;-70
2023/04/19 11:09:23;;;;;;;420.20;393.40;;;15.60;3.90;;;;;;5013915;28;20452;-70
2023/04/19 11:11:51;;;;;;;452.90;423.13;;;15.90;2.50;;;;;;5031742;28;20418;-70
2023/04/19 11:14:21;;;;;;;630.27;582.27;;;15.80;2.80;;;;;;5014093;28;20517;-70
2023/04/19 11:16:46;;;;;;;359.13;336.20;;;15.80;2.40;;;;;;5031655;28;20468;-70
2023/04/19 11:19:19;;;;;;;403.33;376.33;;;15.80;2.70;;;;;;5031804;28;20422;-70
2023/04/19 11:21:47;;;;;;;316.63;296.00;;;15.90;2.50;;;;;;5031688;28;20171;-70
2023/04/19 11:24:17;;;;;;;412.73;386.83;;;15.60;2.50;;;;;;5031889;28;20417;-70
2023/04/19 11:26:49;;;;;;;383.60;358.23;;;15.90;1.90;;;;;;5031632;28;20438;-70
2023/04/19 11:29:15;;;;;;;378.27;354.07;;;16.00;2.90;;;;;;5014209;28;20426;-70
2023/04/19 11:31:45;;;;;;;330.23;308.57;;;16.50;1.00;;;;;;5014379;28;20491;-70
2023/04/19 11:34:11;;;;;;;310.10;290.10;;;16.80;1.00;;;;;;5032239;28;20179;-70
2023/04/19 11:36:47;;;;;;;415.00;388.13;;;17.20;1.00;;;;;;5031627;28;21010;-70
2023/04/19 11:39:13;;;;;;;334.87;313.17;;;16.90;1.00;;;;;;5031949;28;20408;-70
2023/04/19 11:41:39;;;;;;;503.10;471.77;;;16.70;1.00;;;;;;5013874;28;20505;-70
2023/04/19 11:44:12;;;;;;;362.00;337.23;;;16.50;1.00;;;;;;5032257;28;20777;-70
2023/04/19 11:46:38;;;;;;;316.97;295.30;;;16.70;1.00;;;;;;5032213;28;20445;-70
2023/04/19 11:49:04;;;;;;;408.00;380.70;;;16.50;1.00;;;;;;5014622;28;20939;-70
2023/04/19 11:51:30;;;;;;;353.17;330.17;;;16.20;1.10;;;;;;5032587;28;20255;-70
2023/04/19 11:53:55;;;;;;;425.40;397.97;;;15.70;1.90;;;;;;5033067;28;20608;-70
2023/04/19 11:56:22;;;;;;;429.10;401.53;;;15.40;3.00;;;;;;5034989;28;20552;-70
2023/04/19 11:58:48;;;;;;;165.87;152.30;;;15.00;3.60;;;;;;5035235;28;20195;-70
2023/04/19 12:01:23;;;;;;;310.07;289.10;;;15.00;4.10;;;;;;5034998;28;20417;-70
2023/04/19 12:03:50;;;;;;;383.50;358.00;;;14.90;4.00;;;;;;5035250;28;20220;-70
2023/04/19 12:06:24;;;;;;;595.20;552.73;;;14.90;4.00;;;;;;5017154;28;20491;-70
2023/04/19 12:08:51;;;;;;;326.87;305.20;;;14.60;3.90;;;;;;5035510;28;20406;-70
2023/04/19 12:11:19;;;;;;;371.07;346.57;;;14.50;4.40;;;;;;5017391;28;20515;-70
2023/04/19 12:13:45;;;;;;;470.40;438.33;;;14.80;4.00;;;;;;5034861;28;20504;-70
2023/04/19 12:16:11;;;;;;;638.13;594.40;;;14.90;4.00;;;;;;5016230;28;20556;-70